Time;durP1;ratioP1;P1;durP2;ratioP2;P2;SDS_P1;SDS_P2;PMS_P1;PMS_P2;Temp;Humidity;BMP_temperature;BMP_pressure;BME280_temperature;BME280_humidity;BME280_pressure;Samples;Min_cycle;Max_cycle;Signal;HPM_P1;HPM_P2
2022/05/11 00:01:29;;;;;;;10.55;2.47;;;;;;;8.68;100.00;100047.25;5044015;28;20025;-82
2022/05/11 00:04:01;;;;;;;15.88;3.25;;;;;;;8.67;100.00;100046.41;5043348;28;20094;-82
2022/05/11 00:06:28;;;;;;;13.88;3.88;;;;;;;8.55;100.00;100045.22;5046162;28;20055;-85
2022/05/11 00:08:55;;;;;;;7.30;1.88;;;;;;;8.44;100.00;100045.59;5049778;28;20029;-82
2022/05/11 00:11:21;;;;;;;25.45;3.38;;;;;;;8.40;100.00;100041.63;5027278;28;20467;-83
2022/05/11 00:13:47;;;;;;;13.45;3.30;;;;;;;8.45;100.00;100049.97;5039587;28;20028;-81
2022/05/11 00:16:12;;;;;;;17.48;3.22;;;;;;;8.40;100.00;100044.31;5030711;28;20393;-82
2022/05/11 00:18:39;;;;;;;20.50;3.25;;;;;;;8.28;100.00;100034.00;5043127;28;20466;-78
2022/05/11 00:21:05;;;;;;;19.90;3.35;;;;;;;8.24;100.00;100032.66;5046304;28;20056;-82
2022/05/11 00:23:31;;;;;;;12.75;3.45;;;;;;;8.24;100.00;100031.84;5028146;28;20039;-81
2022/05/11 00:25:57;;;;;;;23.02;3.20;;;;;;;8.13;100.00;100017.03;5042390;28;20044;-80
2022/05/11 00:28:23;;;;;;;7.60;2.45;;;;;;;7.95;100.00;99987.03;5049686;28;20025;-82
2022/05/11 00:30:48;;;;;;;17.35;3.33;;;;;;;8.28;100.00;100019.75;5042927;28;20094;-83
2022/05/11 00:33:15;;;;;;;15.32;3.05;;;;;;;8.35;100.00;100013.50;5040104;28;20029;-80
2022/05/11 00:35:42;;;;;;;10.52;2.50;;;;;;;8.45;100.00;100010.59;5032153;28;20032;-88
2022/05/11 00:38:08;;;;;;;15.32;2.83;;;;;;;8.45;100.00;100005.25;5043675;28;20033;-80
2022/05/11 00:40:43;;;;;;;16.70;3.90;;;;;;;8.59;100.00;100007.13;5053978;28;21509;-82
2022/05/11 00:43:09;;;;;;;18.58;3.40;;;;;;;8.71;100.00;100010.22;5049367;28;20040;-85
2022/05/11 00:45:36;;;;;;;13.52;3.10;;;;;;;8.84;100.00;100006.06;5043309;28;20393;-81
2022/05/11 00:49:33;;;;;;;11.57;2.22;;;;;;;8.91;100.00;100007.00;5044166;28;20033;-82
2022/05/11 00:50:51;;;;;;;10.70;2.63;;;;;;;8.93;100.00;99991.56;5032166;28;20390;-85
2022/05/11 00:53:17;;;;;;;14.10;2.40;;;;;;;8.88;100.00;99996.66;5026943;28;20039;-82
2022/05/11 00:55:55;;;;;;;14.65;3.25;;;;;;;8.74;100.00;99993.75;5033659;28;20040;-84
2022/05/11 00:58:34;;;;;;;10.10;2.53;;;;;;;8.54;100.00;99982.72;5032574;28;20029;-84
2022/05/11 01:00:59;;;;;;;7.93;2.00;;;;;;;8.35;100.00;99972.50;5016499;28;20098;-82
2022/05/11 01:03:33;;;;;;;18.20;3.35;;;;;;;8.30;100.00;99974.88;5033012;28;20036;-85
2022/05/11 01:05:59;;;;;;;11.70;2.97;;;;;;;8.24;100.00;99981.78;5052574;28;20029;-81
2022/05/11 01:08:27;;;;;;;17.50;3.25;;;;;;;8.16;100.00;99984.53;5050279;28;20120;-86
2022/05/11 01:10:53;;;;;;;10.80;2.75;;;;;;;8.08;100.00;99971.22;5032820;28;20116;-81
2022/05/11 01:13:18;;;;;;;17.45;3.60;;;;;;;8.19;100.00;99970.78;5049859;28;20517;-82
2022/05/11 01:15:47;;;;;;;8.50;2.80;;;;;;;8.30;100.00;99964.16;5049762;28;21516;-85
2022/05/11 01:18:13;;;;;;;34.50;6.82;;;;;;;8.34;100.00;99947.56;5030787;28;20084;-83
2022/05/11 01:20:38;;;;;;;18.77;4.07;;;;;;;8.59;100.00;99958.88;5050588;28;20033;-82
2022/05/11 01:23:14;;;;;;;14.43;3.65;;;;;;;8.69;100.00;99949.78;5048696;28;20102;-81
2022/05/11 01:25:39;;;;;;;18.85;2.80;;;;;;;8.82;100.00;99960.69;5046253;28;20033;-80
2022/05/11 01:28:13;;;;;;;15.38;2.90;;;;;;;8.84;100.00;99953.31;5036498;28;20080;-79
2022/05/11 01:30:42;;;;;;;22.80;3.88;;;;;;;8.75;100.00;99957.06;5036980;28;20056;-81
2022/05/11 01:33:09;;;;;;;23.00;3.65;;;;;;;8.64;100.00;99955.66;5033173;28;20453;-84
2022/05/11 01:35:59;;;;;;;5.15;2.45;;;;;;;8.57;100.00;99941.34;5033974;28;20029;-85
2022/05/11 01:38:41;;;;;;;8.40;2.40;;;;;;;8.48;100.00;99937.09;5026688;28;20116;-83
2022/05/11 01:41:09;;;;;;;14.55;3.05;;;;;;;8.43;100.00;99937.63;5027964;28;20037;-82
2022/05/11 01:43:36;;;;;;;10.50;3.35;;;;;;;8.27;100.00;99932.38;5048137;28;20074;-83
2022/05/11 01:46:03;;;;;;;16.40;2.58;;;;;;;8.06;100.00;99933.88;5054741;28;20040;-86
2022/05/11 01:48:29;;;;;;;18.75;3.08;;;;;;;7.95;100.00;99933.50;5051138;28;20052;-81
2022/05/11 01:50:55;;;;;;;8.70;3.83;;;;;;;7.91;100.00;99941.88;5051609;28;20410;-81
2022/05/11 01:53:21;;;;;;;10.45;2.40;;;;;;;7.72;100.00;99924.44;5065732;28;20036;-81
2022/05/11 01:55:47;;;;;;;5.90;1.52;;;;;;;7.61;100.00;99934.72;5053123;28;20032;-81
2022/05/11 01:58:14;;;;;;;16.08;2.30;;;;;;;7.48;100.00;99933.44;5048543;28;20414;-82
2022/05/11 02:00:42;;;;;;;13.57;2.75;;;;;;;7.23;100.00;99919.38;5048076;28;20037;-80
2022/05/11 02:03:08;;;;;;;16.52;2.22;;;;;;;7.25;100.00;99935.22;5030646;28;20081;-82
2022/05/11 02:08:18;;;;;;;14.15;2.45;;;;;;;7.16;100.00;99933.63;5052846;28;20043;-80
2022/05/11 02:10:44;;;;;;;9.05;2.78;;;;;;;7.19;100.00;99942.13;5035074;28;20052;-80
2022/05/11 02:13:09;;;;;;;25.02;3.45;;;;;;;7.19;100.00;99930.59;5027691;28;20470;-81
2022/05/11 02:15:36;;;;;;;14.05;2.25;;;;;;;7.22;100.00;99919.53;5027430;28;20051;-82
2022/05/11 02:18:05;;;;;;;9.27;2.83;;;;;;;7.34;100.00;99911.97;5033425;28;20029;-84
2022/05/11 02:20:31;;;;;;;12.27;3.15;;;;;;;7.59;100.00;99928.72;5024371;28;20048;-82
2022/05/11 02:22:57;;;;;;;22.58;2.92;;;;;;;7.71;100.00;99921.94;5059077;28;20155;-86
2022/05/11 02:25:22;;;;;;;13.23;3.53;;;;;;;7.82;100.00;99926.88;5046574;28;20121;-85
2022/05/11 02:27:49;;;;;;;15.60;2.92;;;;;;;7.88;100.00;99923.47;5030305;28;20041;-80
2022/05/11 02:30:20;;;;;;;12.95;2.42;;;;;;;7.91;100.00;99912.44;5051102;28;20021;-83
2022/05/11 02:32:46;;;;;;;11.95;3.05;;;;;;;7.99;100.00;99914.22;5051044;28;20072;-83
2022/05/11 02:35:15;;;;;;;19.95;3.92;;;;;;;8.11;100.00;99910.09;5030853;28;20528;-81
2022/05/11 02:37:53;;;;;;;23.75;3.30;;;;;;;8.20;100.00;99910.84;5029585;28;20029;-84
2022/05/11 02:40:22;;;;;;;12.85;3.13;;;;;;;8.18;100.00;99890.59;5043977;28;20037;-84
2022/05/11 02:42:48;;;;;;;8.63;2.53;;;;;;;8.35;100.00;99898.31;5043492;28;20465;-80
2022/05/11 02:45:15;;;;;;;15.98;4.05;;;;;;;8.45;100.00;99905.31;5044534;28;20499;-82
2022/05/11 02:47:41;;;;;;;18.88;3.40;;;;;;;8.46;100.00;99896.25;5048740;28;20506;-81
2022/05/11 02:50:12;;;;;;;16.35;4.35;;;;;;;8.52;100.00;99892.81;5040047;28;20033;-81
2022/05/11 02:52:37;;;;;;;17.25;4.18;;;;;;;8.56;100.00;99888.78;5046227;28;20094;-81
2022/05/11 02:55:03;;;;;;;19.30;3.72;;;;;;;8.58;100.00;99886.75;5031791;28;20490;-81
2022/05/11 02:57:29;;;;;;;19.52;3.42;;;;;;;8.59;100.00;99894.56;5047670;28;20040;-81
2022/05/11 02:59:54;;;;;;;15.38;3.83;;;;;;;8.50;100.00;99884.16;5041317;28;20459;-80
2022/05/11 03:02:21;;;;;;;12.82;2.67;;;;;;;8.50;100.00;99889.50;5021145;28;20029;-81
2022/05/11 03:04:47;;;;;;;7.00;2.38;;;;;;;8.46;100.00;99896.25;5009094;28;20037;-82
2022/05/11 03:07:13;;;;;;;7.65;2.15;;;;;;;8.41;100.00;99891.41;5052528;28;20032;-85
2022/05/11 03:09:38;;;;;;;15.50;3.17;;;;;;;8.37;100.00;99898.97;5024468;28;20041;-83
2022/05/11 03:12:05;;;;;;;8.20;2.05;;;;;;;8.31;100.00;99894.34;5009918;28;20384;-84
2022/05/11 03:14:30;;;;;;;15.60;3.05;;;;;;;8.34;100.00;99904.69;5027526;28;20041;-86
2022/05/11 03:16:56;;;;;;;9.38;2.42;;;;;;;8.32;100.00;99901.38;5021380;28;20052;-83
2022/05/11 03:19:22;;;;;;;8.52;3.45;;;;;;;8.33;100.00;99899.50;5029536;28;20086;-83
2022/05/11 03:21:47;;;;;;;8.93;2.60;;;;;;;8.32;100.00;99903.22;5006009;28;20037;-80
2022/05/11 03:24:13;;;;;;;22.70;3.20;;;;;;;8.15;100.00;99883.81;5030085;28;20098;-84
2022/05/11 03:26:39;;;;;;;19.95;3.80;;;;;;;8.19;100.00;99901.16;5044403;28;20126;-82
2022/05/11 03:29:05;;;;;;;9.82;2.60;;;;;;;8.15;100.00;99899.88;5011778;28;20539;-83
2022/05/11 03:31:33;;;;;;;7.68;2.28;;;;;;;7.84;100.00;99854.44;5040268;28;20036;-78
2022/05/11 03:36:43;;;;;;;23.63;4.05;;;;;;;8.02;100.00;99880.88;5033528;28;20040;-88
2022/05/11 03:39:10;;;;;;;15.88;3.80;;;;;;;8.09;100.00;99889.84;5026386;28;20058;-85
2022/05/11 03:41:36;;;;;;;18.17;3.58;;;;;;;8.06;100.00;99887.53;5042176;28;20039;-81
2022/05/11 03:44:02;;;;;;;21.23;4.07;;;;;;;8.06;100.00;99893.72;5033379;28;20038;-87
2022/05/11 03:46:28;;;;;;;9.82;3.08;;;;;;;8.08;100.00;99893.56;5047424;28;20382;-85
2022/05/11 03:48:53;;;;;;;15.40;3.38;;;;;;;8.05;100.00;99877.88;5030608;28;20047;-82
2022/05/11 03:51:19;;;;;;;13.30;2.28;;;;;;;8.24;100.00;99898.75;5047097;28;20036;-87
2022/05/11 03:53:44;;;;;;;10.45;3.15;;;;;;;8.26;100.00;99894.06;5049346;28;20064;-88
2022/05/11 03:56:10;;;;;;;17.63;3.05;;;;;;;8.32;100.00;99895.19;5019340;28;20488;-82
2022/05/11 03:58:36;;;;;;;17.23;3.72;;;;;;;8.35;100.00;99901.00;5048345;28;20031;-79
2022/05/11 04:01:01;;;;;;;9.15;2.58;;;;;;;8.31;100.00;99902.38;5043518;28;20029;-85
2022/05/11 04:03:27;;;;;;;23.05;4.03;;;;;;;8.28;100.00;99892.03;5030749;28;20127;-82
2022/05/11 04:05:53;;;;;;;11.48;2.72;;;;;;;8.31;100.00;99902.38;5008538;28;20151;-81
2022/05/11 04:08:18;;;;;;;7.43;2.20;;;;;;;8.20;100.00;99889.41;5039702;28;20114;-83
2022/05/11 04:10:44;;;;;;;3.60;0.77;;;;;;;8.25;100.00;99899.59;5024403;28;20402;-79
2022/05/11 04:13:10;;;;;;;0.57;0.57;;;;;;;8.26;100.00;99903.94;5008527;28;20473;-81
2022/05/11 04:15:36;;;;;;;1.27;1.27;;;;;;;8.15;100.00;99881.94;5011884;28;20052;-83
2022/05/11 04:18:02;;;;;;;0.40;0.40;;;;;;;8.25;100.00;99910.31;5012632;28;20033;-81
2022/05/11 04:20:28;;;;;;;0.50;0.50;;;;;;;8.26;100.00;99903.94;5038389;28;20765;-81
2022/05/11 04:22:55;;;;;;;1.35;0.95;;;;;;;8.26;100.00;99910.13;5035898;28;20043;-82
2022/05/11 04:25:21;;;;;;;0.98;0.93;;;;;;;8.30;100.00;99911.41;5017710;28;20029;-80
2022/05/11 04:27:48;;;;;;;0.40;0.40;;;;;;;8.29;100.00;99908.94;5041431;28;20033;-79
2022/05/11 04:30:16;;;;;;;0.40;0.40;;;;;;;8.33;100.00;99910.22;5037715;28;20090;-80
2022/05/11 04:32:42;;;;;;;0.40;0.40;;;;;;;8.21;100.00;99893.78;5025395;28;20033;-79
2022/05/11 04:35:08;;;;;;;0.40;0.40;;;;;;;8.11;100.00;99879.81;5046517;28;20037;-80
2022/05/11 04:37:34;;;;;;;0.40;0.40;;;;;;;8.23;100.00;99904.28;5038423;28;20035;-80
2022/05/11 04:39:59;;;;;;;0.40;0.40;;;;;;;8.14;100.00;99906.22;5005429;28;20033;-78
2022/05/11 04:42:25;;;;;;;0.40;0.40;;;;;;;8.05;100.00;99899.28;5048945;28;20413;-80
2022/05/11 04:44:53;;;;;;;0.40;0.40;;;;;;;7.94;100.00;99900.53;5010192;28;20094;-81
2022/05/11 04:47:19;;;;;;;0.40;0.40;;;;;;;7.86;100.00;99897.94;5035132;28;20143;-80
2022/05/11 04:49:44;;;;;;;0.40;0.40;;;;;;;7.84;100.00;99902.63;5038979;28;20041;-79
2022/05/11 04:52:13;;;;;;;0.40;0.40;;;;;;;7.83;100.00;99914.31;5019320;28;20036;-79
2022/05/11 04:54:50;;;;;;;0.40;0.40;;;;;;;7.80;100.00;99915.50;5020256;28;20040;-80
2022/05/11 04:57:17;;;;;;;0.40;0.40;;;;;;;7.77;100.00;99923.06;5018325;28;20048;-80
2022/05/11 04:59:43;;;;;;;0.40;0.40;;;;;;;7.65;100.00;99903.94;5035657;28;20066;-82
2022/05/11 05:02:24;;;;;;;0.40;0.40;;;;;;;7.66;100.00;99917.13;5028244;28;20033;-78
2022/05/11 05:04:50;;;;;;;0.40;0.40;;;;;;;7.57;100.00;99915.53;5001074;28;20080;-80
2022/05/11 05:07:16;;;;;;;0.40;0.40;;;;;;;7.59;100.00;99918.00;5034247;28;20730;-81
2022/05/11 05:09:42;;;;;;;0.47;0.47;;;;;;;7.65;100.00;99914.66;5020740;28;20028;-81
2022/05/11 05:12:08;;;;;;;0.40;0.40;;;;;;;7.74;100.00;99910.06;5033673;28;20051;-86
2022/05/11 05:14:34;;;;;;;0.40;0.40;;;;;;;7.85;100.00;99921.16;5033336;28;20128;-79
2022/05/11 05:17:01;;;;;;;0.40;0.40;;;;;;;7.82;100.00;99918.84;5028849;28;20174;-81
2022/05/11 05:19:27;;;;;;;0.40;0.40;;;;;;;7.70;100.00;99922.97;5022391;28;20470;-80
2022/05/11 05:21:53;;;;;;;0.40;0.40;;;;;;;7.54;100.00;99923.06;5046326;28;20032;-80
2022/05/11 05:24:18;;;;;;;0.40;0.40;;;;;;;7.49;100.00;99920.94;5013221;28;20039;-80
2022/05/11 05:26:44;;;;;;;0.40;0.40;;;;;;;7.44;100.00;99932.16;5012015;28;20390;-81
2022/05/11 05:31:53;;;;;;;0.50;0.50;;;;;;;7.33;100.00;99924.53;5058517;28;20048;-77
2022/05/11 05:34:19;;;;;;;0.40;0.40;;;;;;;7.60;100.00;99935.75;5043851;28;20045;-78
2022/05/11 05:36:45;;;;;;;0.40;0.40;;;;;;;7.84;100.00;99945.44;5057928;28;20028;-79
2022/05/11 05:39:10;;;;;;;0.43;0.43;;;;;;;8.48;100.00;99953.16;5043397;28;20063;-77
2022/05/11 05:41:36;;;;;;;0.40;0.40;;;;;;;8.80;100.00;99955.50;5042976;28;20041;-78
2022/05/11 05:44:04;;;;;;;0.40;0.40;;;;;;;8.65;100.00;99949.28;5056411;28;20032;-79
2022/05/11 05:46:29;;;;;;;0.50;0.50;;;;;;;8.77;100.00;99955.03;5051113;28;20200;-80
2022/05/11 05:48:55;;;;;;;0.50;0.50;;;;;;;9.31;100.00;99967.31;5015071;28;20131;-82
2022/05/11 05:51:23;;;;;;;0.50;0.50;;;;;;;10.07;100.00;99965.91;5046408;28;20036;-82
2022/05/11 05:53:49;;;;;;;0.50;0.50;;;;;;;10.82;100.00;99965.50;5025847;28;20047;-79
2022/05/11 05:56:15;;;;;;;0.50;0.50;;;;;;;11.24;100.00;99959.13;5031583;28;20048;-79
2022/05/11 05:58:42;;;;;;;0.40;0.40;;;;;;;11.39;100.00;99964.38;5044934;28;20904;-78
2022/05/11 06:01:08;;;;;;;0.40;0.40;;;;;;;11.43;100.00;99971.00;5022211;28;20037;-82
2022/05/11 06:03:35;;;;;;;0.40;0.40;;;;;;;11.24;100.00;99934.91;5040051;28;20036;-80
2022/05/11 06:06:01;;;;;;;0.50;0.50;;;;;;;11.30;100.00;99963.72;5062765;28;20036;-80
2022/05/11 06:08:29;;;;;;;0.40;0.40;;;;;;;10.56;100.00;99969.69;5041740;28;20024;-80
2022/05/11 06:10:56;;;;;;;0.40;0.40;;;;;;;10.41;100.00;99985.88;5032721;28;20437;-78
2022/05/11 06:13:23;;;;;;;0.40;0.40;;;;;;;10.13;100.00;99978.59;5048175;28;20398;-80
2022/05/11 06:15:54;;;;;;;0.50;0.50;;;;;;;10.09;100.00;99988.03;5015321;28;20029;-80
2022/05/11 06:18:21;;;;;;;0.40;0.40;;;;;;;10.20;100.00;99988.56;5032068;28;20060;-80
2022/05/11 06:20:51;;;;;;;0.40;0.40;;;;;;;10.11;100.00;99990.56;5046604;28;20040;-83
2022/05/11 06:23:18;;;;;;;0.40;0.40;;;;;;;10.03;100.00;99987.97;5032696;28;20551;-83
2022/05/11 06:25:43;;;;;;;0.50;0.50;;;;;;;9.98;100.00;99998.47;5042224;28;20034;-81
2022/05/11 06:28:09;;;;;;;0.60;0.60;;;;;;;10.12;100.00;99993.03;5012642;28;20036;-82
2022/05/11 06:30:35;;;;;;;0.50;0.50;;;;;;;10.89;100.00;99995.97;5032010;28;20069;-82
2022/05/11 06:33:02;;;;;;;0.50;0.50;;;;;;;11.74;100.00;99993.91;5038109;28;20049;-78
2022/05/11 06:35:28;;;;;;;0.50;0.50;;;;;;;12.78;98.64;99998.88;5049283;28;20102;-82
2022/05/11 06:37:54;;;;;;;0.50;0.50;;;;;;;13.03;97.34;99999.03;5027431;28;20086;-82
2022/05/11 06:40:21;;;;;;;0.60;0.60;;;;;;;13.16;96.73;100012.50;5035743;28;20071;-81
2022/05/11 06:42:52;;;;;;;0.57;0.57;;;;;;;14.32;92.24;100010.78;5050836;28;20090;-83
2022/05/11 06:45:17;;;;;;;0.60;0.60;;;;;;;14.37;91.81;100019.06;5045904;28;20025;-82
2022/05/11 06:47:43;;;;;;;0.40;0.40;;;;;;;14.49;90.68;100019.16;5033550;28;20528;-80
2022/05/11 06:50:11;;;;;;;0.60;0.60;;;;;;;15.24;90.16;100030.00;5028189;28;20033;-82
2022/05/11 06:52:37;;;;;;;0.60;0.60;;;;;;;16.85;85.44;100034.97;5048003;28;20479;-81
2022/05/11 07:00:34;;;;;;;0.40;0.40;;;;;;;13.27;98.04;100040.75;5041161;28;20139;-81
2022/05/11 07:03:00;;;;;;;0.30;0.30;;;;;;;12.29;100.00;100044.03;5033625;28;20124;-81
2022/05/11 07:05:26;;;;;;;0.60;0.60;;;;;;;11.74;100.00;100059.38;5044036;28;20067;-81
2022/05/11 07:07:52;;;;;;;0.40;0.40;;;;;;;11.34;100.00;100058.34;5029592;28;20036;-85
2022/05/11 07:10:19;;;;;;;0.60;0.60;;;;;;;11.00;100.00;100055.44;5032361;28;20025;-80
2022/05/11 07:12:48;;;;;;;0.40;0.40;;;;;;;10.98;100.00;100068.25;5047873;28;20033;-81
2022/05/11 07:15:16;;;;;;;5.35;1.85;;;;;;;12.07;100.00;100072.19;5003072;28;20151;-82
2022/05/11 07:17:47;;;;;;;0.60;0.60;;;;;;;12.09;100.00;100062.88;5034935;28;20474;-85
2022/05/11 07:20:20;;;;;;;8.60;1.67;;;;;;;12.37;100.00;100077.25;5036435;28;20033;-82
2022/05/11 07:22:45;;;;;;;1.05;1.05;;;;;;;12.56;100.00;100087.22;5048957;28;20049;-81
2022/05/11 07:25:17;;;;;;;0.45;0.45;;;;;;;12.45;100.00;100085.97;5049118;28;20087;-83
2022/05/11 07:27:44;;;;;;;0.52;0.52;;;;;;;12.43;100.00;100092.59;5012736;28;20131;-81
2022/05/11 07:30:12;;;;;;;0.70;0.70;;;;;;;13.39;100.00;100103.06;5047328;28;20033;-82
2022/05/11 07:32:38;;;;;;;1.00;1.00;;;;;;;14.17;97.86;100094.06;5054682;28;20037;-81
2022/05/11 07:35:05;;;;;;;1.25;0.82;;;;;;;13.79;97.59;100106.47;5028902;28;20116;-81
2022/05/11 07:37:30;;;;;;;3.70;1.08;;;;;;;13.30;98.95;100104.28;5044107;28;20071;-78
2022/05/11 07:39:56;;;;;;;6.50;1.65;;;;;;;15.41;92.26;100110.66;5041458;28;20137;-82
2022/05/11 07:42:23;;;;;;;1.45;1.20;;;;;;;17.96;82.08;100097.50;5010405;28;20051;-80
2022/05/11 07:44:49;;;;;;;7.72;1.70;;;;;;;19.88;74.47;100110.34;5054889;28;20060;-81
2022/05/11 07:47:16;;;;;;;6.47;1.42;;;;;;;18.73;77.59;100115.31;5027762;28;20029;-81
2022/05/11 07:49:41;;;;;;;8.30;2.05;;;;;;;16.64;85.95;100121.28;5039101;28;20029;-82
2022/05/11 07:52:08;;;;;;;9.98;2.15;;;;;;;15.57;91.06;100120.94;5042933;28;20043;-81
2022/05/11 07:54:34;;;;;;;8.90;3.05;;;;;;;15.01;92.56;100125.41;5046729;28;20034;-78
2022/05/11 07:59:56;;;;;;;11.95;3.60;;;;;;;12.86;100.00;100124.59;5057533;28;20036;-78
2022/05/11 08:02:27;;;;;;;11.48;3.08;;;;;;;12.12;100.00;100128.16;5024289;28;20397;-80
2022/05/11 08:05:13;;;;;;;9.00;2.40;;;;;;;11.45;100.00;100138.53;5047412;28;20120;-82
2022/05/11 08:07:45;;;;;;;11.45;2.47;;;;;;;10.92;100.00;100146.19;5054466;28;20044;-81
2022/05/11 08:10:19;;;;;;;7.30;1.58;;;;;;;10.58;100.00;100153.09;5011116;28;20040;-83
2022/05/11 08:12:46;;;;;;;8.35;2.72;;;;;;;14.61;94.60;100160.84;5025768;28;20210;-83
2022/05/11 08:15:13;;;;;;;11.65;3.10;;;;;;;17.47;81.41;100157.59;5036933;28;20029;-82
2022/05/11 08:17:41;;;;;;;13.77;2.75;;;;;;;19.23;75.45;100153.50;5045900;28;20546;-83
2022/05/11 08:20:19;;;;;;;12.95;3.50;;;;;;;20.36;69.94;100153.22;5014880;28;20037;-82
2022/05/11 08:22:45;;;;;;;9.70;2.22;;;;;;;21.29;67.44;100160.44;5043417;28;20041;-82
2022/05/11 08:25:13;;;;;;;16.08;2.97;;;;;;;21.47;65.05;100157.31;5045314;28;20510;-81
2022/05/11 08:27:38;;;;;;;6.43;2.40;;;;;;;21.91;66.48;100157.06;5038314;28;20080;-82
2022/05/11 08:35:34;;;;;;;13.30;2.90;;;;;;;17.38;79.17;100172.59;5027224;28;20033;-84
2022/05/11 08:38:00;;;;;;;12.32;2.35;;;;;;;16.37;81.43;100168.84;5012832;28;20051;-83
2022/05/11 08:40:34;;;;;;;14.63;3.05;;;;;;;16.30;80.78;100184.38;5013963;28;20029;-81
2022/05/11 08:43:02;;;;;;;11.32;3.50;;;;;;;19.64;69.87;100186.06;5027107;28;20144;-82
2022/05/11 08:45:35;;;;;;;8.00;2.80;;;;;;;22.15;64.96;100168.41;5029528;28;20029;-83
2022/05/11 08:48:06;;;;;;;19.13;2.83;;;;;;;19.13;69.33;100194.22;5045217;28;20037;-87
2022/05/11 08:50:34;;;;;;;10.65;2.13;;;;;;;16.54;78.25;100175.31;5035855;28;20036;-84
2022/05/11 08:53:02;;;;;;;8.32;2.15;;;;;;;15.30;84.27;100190.78;5050455;28;20069;-83
2022/05/11 08:55:34;;;;;;;12.40;3.47;;;;;;;14.72;86.17;100195.31;5008395;28;20191;-80
2022/05/11 08:58:11;;;;;;;14.52;3.45;;;;;;;15.40;83.67;100191.13;5048021;28;20044;-84
2022/05/11 09:00:41;;;;;;;13.60;2.75;;;;;;;15.34;85.34;100194.69;5025086;28;20033;-81
2022/05/11 09:03:32;;;;;;;19.52;4.00;;;;;;;14.50;85.14;100204.75;5040151;28;20028;-87
2022/05/11 09:05:59;;;;;;;17.98;3.58;;;;;;;13.47;92.91;100212.69;5030953;28;20053;-85
2022/05/11 09:08:25;;;;;;;8.32;2.92;;;;;;;12.74;96.72;100216.13;5051514;28;20365;-82
2022/05/11 09:10:54;;;;;;;9.65;2.45;;;;;;;12.17;96.49;100245.13;5023028;28;20031;-83
2022/05/11 09:13:22;;;;;;;8.75;3.00;;;;;;;11.81;94.47;100259.56;5044482;28;20097;-82
2022/05/11 09:15:54;;;;;;;8.95;2.20;;;;;;;11.05;97.18;100250.41;5033180;28;20029;-81
2022/05/11 09:18:35;;;;;;;12.98;2.30;;;;;;;10.62;100.00;100261.09;5033287;28;20429;-82
2022/05/11 09:21:13;;;;;;;9.05;2.00;;;;;;;10.39;100.00;100269.28;5053238;28;20033;-86
2022/05/11 09:23:41;;;;;;;3.22;1.70;;;;;;;10.36;100.00;100243.63;5052847;28;20478;-80
2022/05/11 09:26:10;;;;;;;3.35;1.88;;;;;;;10.83;100.00;100261.16;5035369;28;20045;-82
2022/05/11 09:28:38;;;;;;;7.88;2.40;;;;;;;11.39;100.00;100258.59;5025894;28;20083;-85
2022/05/11 09:31:13;;;;;;;4.68;1.67;;;;;;;12.09;100.00;100251.50;5034496;28;20099;-84
2022/05/11 09:33:57;;;;;;;7.07;2.10;;;;;;;13.89;94.38;100256.53;5033424;28;20037;-85
2022/05/11 09:36:37;;;;;;;4.40;1.90;;;;;;;14.38;89.20;100264.13;5012316;28;20477;-85
2022/05/11 09:39:12;;;;;;;4.22;1.70;;;;;;;18.23;72.79;100259.19;5051405;28;20044;-83
2022/05/11 09:41:40;;;;;;;8.35;2.28;;;;;;;18.87;72.01;100251.00;5020623;28;20127;-84
2022/05/11 09:44:23;;;;;;;6.93;2.30;;;;;;;19.73;70.11;100264.50;5051942;28;20292;-87
2022/05/11 09:46:50;;;;;;;11.02;3.10;;;;;;;21.07;64.75;100258.94;5019033;28;20536;-79
2022/05/11 09:49:19;;;;;;;15.85;2.70;;;;;;;20.73;65.46;100252.81;5073661;28;20032;-82
2022/05/11 09:51:50;;;;;;;5.25;2.10;;;;;;;21.50;63.63;100246.25;5058468;28;20032;-83
2022/05/11 09:54:16;;;;;;;12.68;3.08;;;;;;;22.70;60.07;100266.69;5052250;28;20381;-86
2022/05/11 09:57:00;;;;;;;8.02;2.78;;;;;;;20.71;66.00;100271.38;5050507;28;20124;-84
2022/05/11 09:59:37;;;;;;;9.50;2.83;;;;;;;22.11;61.19;100265.00;5052524;28;20025;-85
2022/05/11 10:02:25;;;;;;;13.05;3.10;;;;;;;23.41;59.39;100272.38;5016136;28;20466;-83
2022/05/11 10:05:09;;;;;;;11.55;3.75;;;;;;;24.54;56.96;100267.63;5053884;28;20575;-83
2022/05/11 10:07:39;;;;;;;7.65;1.73;;;;;;;23.74;55.73;100261.16;5024926;28;20029;-82
2022/05/11 10:10:31;;;;;;;9.07;2.38;;;;;;;20.04;66.79;100261.44;5052201;28;20033;-84
2022/05/11 10:13:12;;;;;;;16.75;3.20;;;;;;;17.50;76.48;100263.13;5051342;28;20037;-83
2022/05/11 10:24:23;;;;;;;10.80;2.75;;;;;;;22.22;63.63;100269.50;5050959;28;20078;-84
2022/05/11 10:26:56;;;;;;;13.82;3.42;;;;;;;20.83;62.92;100272.06;5023719;28;20044;-83
2022/05/11 10:29:39;;;;;;;9.43;3.08;;;;;;;18.66;66.75;100270.69;5046712;28;20056;-82
2022/05/11 10:32:15;;;;;;;14.10;2.75;;;;;;;17.78;67.93;100273.34;5047769;28;20441;-84
2022/05/11 10:34:51;;;;;;;10.75;2.65;;;;;;;21.25;60.90;100264.03;5055574;28;20041;-84
2022/05/11 10:37:22;;;;;;;12.30;2.80;;;;;;;24.14;50.67;100279.53;5048781;28;20445;-82
2022/05/11 10:40:09;;;;;;;7.63;2.70;;;;;;;24.67;46.46;100290.94;5029592;28;20051;-82
2022/05/11 10:42:36;;;;;;;10.88;2.60;;;;;;;25.61;43.70;100287.38;5015495;28;20474;-84
2022/05/11 10:45:19;;;;;;;6.82;2.15;;;;;;;24.36;50.90;100284.69;5033137;28;20547;-83
2022/05/11 10:48:12;;;;;;;10.18;2.60;;;;;;;23.85;49.17;100280.13;5017720;28;20483;-84
2022/05/11 10:50:53;;;;;;;10.93;2.58;;;;;;;22.22;46.33;100307.81;5030135;28;20043;-83
2022/05/11 10:53:41;;;;;;;11.15;2.53;;;;;;;23.61;46.00;100299.03;5036612;28;20054;-82
2022/05/11 10:56:18;;;;;;;6.28;1.92;;;;;;;22.94;44.23;100284.34;5034439;28;20375;-82
2022/05/11 10:58:56;;;;;;;11.15;3.10;;;;;;;23.66;44.03;100298.22;5034161;28;20031;-87
2022/05/11 11:01:25;;;;;;;9.10;1.50;;;;;;;22.88;45.42;100299.13;5049509;28;20108;-87
2022/05/11 11:04:09;;;;;;;6.78;1.92;;;;;;;21.62;48.16;100307.09;5033746;28;20044;-84
2022/05/11 11:07:11;;;;;;;11.23;3.05;;;;;;;24.57;42.45;100301.97;5043889;28;20074;-83
2022/05/11 11:09:56;;;;;;;4.88;1.88;;;;;;;25.81;34.48;100303.72;5046781;28;20443;-82
2022/05/11 11:12:40;;;;;;;5.93;1.95;;;;;;;25.27;30.59;100285.44;5045640;28;20047;-80
2022/05/11 11:15:12;;;;;;;9.93;2.60;;;;;;;25.33;30.49;100300.78;5050966;28;20032;-84
2022/05/11 11:17:39;;;;;;;7.50;1.90;;;;;;;26.27;28.04;100300.56;5044445;28;20606;-85
2022/05/11 11:20:06;;;;;;;6.18;1.92;;;;;;;26.73;28.83;100296.50;5034835;28;20036;-83
2022/05/11 11:23:04;;;;;;;7.00;1.92;;;;;;;27.68;27.78;100315.84;5030436;28;20580;-85
2022/05/11 11:25:53;;;;;;;8.10;2.72;;;;;;;27.52;26.23;100329.94;5047444;28;20390;-84
2022/05/11 11:28:21;;;;;;;10.63;2.35;;;;;;;27.36;26.76;100315.53;5008900;28;20492;-83
2022/05/11 11:31:10;;;;;;;6.78;1.60;;;;;;;24.03;32.12;100319.09;5032843;28;20497;-83
2022/05/11 11:33:39;;;;;;;8.57;2.10;;;;;;;21.37;35.64;100328.69;5045668;28;20040;-85
2022/05/11 11:36:27;;;;;;;7.97;2.28;;;;;;;23.71;32.43;100317.44;5031856;28;20033;-82
2022/05/11 11:38:59;;;;;;;9.18;2.63;;;;;;;26.22;29.34;100330.09;5054855;28;20091;-85
2022/05/11 11:41:32;;;;;;;7.85;1.77;;;;;;;23.62;33.87;100330.84;5049006;28;20041;-85
2022/05/11 11:43:59;;;;;;;4.85;1.50;;;;;;;21.30;37.55;100318.78;5050323;28;20037;-84
2022/05/11 11:46:36;;;;;;;8.30;2.72;;;;;;;21.92;36.83;100331.13;5045790;28;20044;-84
2022/05/11 11:49:17;;;;;;;7.75;1.90;;;;;;;23.22;31.59;100332.44;5032778;28;20036;-83
2022/05/11 11:51:56;;;;;;;6.82;1.83;;;;;;;19.83;39.09;100320.31;5048732;28;20040;-85
2022/05/11 11:54:37;;;;;;;8.07;1.95;;;;;;;23.34;34.04;100334.09;5046606;28;20112;-83
2022/05/11 11:57:06;;;;;;;9.73;2.28;;;;;;;20.50;39.22;100336.63;5034181;28;20025;-85
2022/05/11 11:59:44;;;;;;;5.28;2.10;;;;;;;18.58;43.59;100359.03;5026515;28;20021;-84
2022/05/11 12:02:32;;;;;;;14.65;2.40;;;;;;;17.81;47.06;100353.66;5016010;28;20032;-82
2022/05/11 12:05:04;;;;;;;12.18;2.70;;;;;;;19.58;44.11;100345.22;5043164;28;20025;-84
2022/05/11 12:15:58;;;;;;;5.93;1.70;;;;;;;18.91;44.88;100356.75;5060281;28;20441;-80